Time;durP1;ratioP1;P1;durP2;ratioP2;P2;SDS_P1;SDS_P2;PMS_P1;PMS_P2;Temp;Humidity;BMP_temperature;BMP_pressure;BME280_temperature;BME280_humidity;BME280_pressure;Samples;Min_cycle;Max_cycle;Signal;HPM_P1;HPM_P2
2022/02/03 00:00:16;;;;;;;;;3.25;3.00;;;;;11.27;62.01;101669.88;5054543;28;45662;-74
2022/02/03 00:06:11;;;;;;;;;4.00;3.25;;;;;11.27;61.84;101659.38;5055707;28;45809;-76
2022/02/03 00:17:02;;;;;;;;;3.75;3.00;;;;;11.24;62.00;101646.41;5055455;28;45829;-75
2022/02/03 00:22:17;;;;;;;;;3.25;3.00;;;;;11.24;61.93;101640.31;5055288;28;46144;-76
2022/02/03 00:25:06;;;;;;;;;3.00;3.00;;;;;11.24;61.96;101641.16;5055522;28;46138;-76
2022/02/03 00:30:17;;;;;;;;;2.50;2.25;;;;;11.19;61.34;101642.34;5055333;28;45591;-75
2022/02/03 00:33:07;;;;;;;;;5.00;3.50;;;;;11.18;61.79;101643.28;5055072;28;46659;-75
2022/02/03 00:36:00;;;;;;;;;3.00;3.00;;;;;11.13;61.66;101630.44;5040552;28;47090;-76
2022/02/03 00:52:33;;;;;;;;;5.50;3.00;;;;;10.95;61.90;101631.50;5055247;28;45534;-74
2022/02/03 00:54:58;;;;;;;;;3.75;3.25;;;;;10.94;61.90;101625.41;5054831;28;46654;-74
2022/02/03 00:57:59;;;;;;;;;3.00;2.75;;;;;10.95;61.85;101621.00;5055430;28;46004;-74
2022/02/03 01:06:40;;;;;;;;;3.00;2.00;;;;;10.93;62.09;101613.22;5054510;28;45874;-75
2022/02/03 01:09:07;;;;;;;;;1.75;1.75;;;;;10.91;61.91;101616.84;5054729;28;47598;-75
2022/02/03 01:11:39;;;;;;;;;2.50;2.50;;;;;10.97;61.99;101629.63;5054707;28;45642;-75
2022/02/03 01:19:36;;;;;;;;;2.75;2.75;;;;;10.92;61.72;101608.06;5054502;28;46144;-75
2022/02/03 01:44:29;;;;;;;;;3.75;3.00;;;;;10.76;61.44;101629.03;5054053;28;45648;-74
2022/02/03 01:52:47;;;;;;;;;4.00;3.00;;;;;10.70;61.95;101604.94;5053883;28;45905;-75
2022/02/03 01:55:20;;;;;;;;;2.25;2.00;;;;;10.71;61.88;101611.88;5054513;28;45779;-75
2022/02/03 01:58:04;;;;;;;;;3.00;2.50;;;;;10.70;62.07;101604.94;5054478;28;45566;-75
2022/02/03 02:00:37;;;;;;;;;2.75;2.00;;;;;10.69;61.95;101606.72;5054329;28;46658;-75
2022/02/03 02:06:39;;;;;;;;;1.00;1.00;;;;;10.67;61.73;101603.34;5061206;28;45529;-75
2022/02/03 02:09:08;;;;;;;;;2.75;2.00;;;;;10.68;61.70;101597.19;5062728;28;45493;-75
2022/02/03 02:12:29;;;;;;;;;5.00;3.00;;;;;10.65;61.53;101596.50;5057121;28;45792;-77
2022/02/03 02:41:12;;;;;;;;;2.00;2.00;;;;;10.58;61.77;101522.59;5053411;28;45757;-75
2022/02/03 02:43:39;;;;;;;;;2.50;2.50;;;;;10.59;61.68;101524.31;5054589;28;45590;-74
2022/02/03 02:46:20;;;;;;;;;2.75;2.75;;;;;10.63;61.66;101509.28;5039716;28;45495;-76
2022/02/03 02:48:59;;;;;;;;;3.25;2.75;;;;;10.65;61.76;101499.53;5057267;28;46517;-75
2022/02/03 02:51:35;;;;;;;;;2.75;2.75;;;;;10.66;61.55;101491.59;5057014;28;45543;-76
2022/02/03 03:31:02;;;;;;;;;2.00;2.00;;;;;10.84;61.65;101396.19;4973580;28;45695;-76
2022/02/03 03:36:53;;;;;;;;;3.00;3.00;;;;;10.83;61.64;101380.53;5019927;28;45575;-76
2022/02/03 03:39:27;;;;;;;;;3.25;3.00;;;;;10.84;61.60;101388.31;5038718;28;45687;-76
2022/02/03 03:42:00;;;;;;;;;3.00;2.00;;;;;10.84;61.53;101385.69;5039192;28;46403;-75
2022/02/03 03:44:29;;;;;;;;;3.25;2.25;;;;;10.78;61.53;101379.97;5038591;28;47143;-76
2022/02/03 03:47:01;;;;;;;;;2.50;2.00;;;;;10.83;61.42;101385.78;5037667;28;45819;-76
2022/02/03 03:49:45;;;;;;;;;3.00;3.00;;;;;10.82;61.57;101379.69;5037479;28;45563;-75
2022/02/03 03:52:20;;;;;;;;;3.00;2.50;;;;;10.77;61.59;101371.25;5036209;28;45570;-76
2022/02/03 05:06:28;;;;;;;;;2.00;2.00;;;;;10.58;61.77;101281.56;4896924;29;45683;-75
2022/02/03 05:12:37;;;;;;;;;3.00;3.00;;;;;10.49;61.63;101280.34;4896666;29;45847;-74
2022/02/03 05:25:16;;;;;;;;;3.00;3.00;;;;;10.42;61.72;101286.03;4869717;29;45835;-75
2022/02/03 06:14:16;;;;;;;;;8.75;8.25;;;;;10.03;61.81;101245.53;5054076;28;45584;-76
2022/02/03 06:17:17;;;;;;;;;9.00;7.00;;;;;10.02;61.89;101235.16;5053979;28;47348;-77
2022/02/03 06:22:56;;;;;;;;;8.75;7.00;;;;;9.94;61.88;101217.25;5057196;28;45602;-76
2022/02/03 06:28:06;;;;;;;;;11.25;9.50;;;;;9.93;61.86;101220.81;5057583;28;45807;-75
2022/02/03 06:30:31;;;;;;;;;10.75;8.25;;;;;9.92;61.90;101215.69;5057848;28;45600;-77
2022/02/03 06:32:57;;;;;;;;;21.50;18.50;;;;;9.90;62.23;101207.91;5057479;28;45741;-76
2022/02/03 06:35:22;;;;;;;;;11.25;9.50;;;;;9.90;62.03;101202.69;5057376;28;46627;-79
2022/02/03 06:37:48;;;;;;;;;13.75;10.50;;;;;9.89;62.26;101187.06;5039442;28;47385;-77
2022/02/03 06:40:13;;;;;;;;;11.75;9.00;;;;;9.89;62.20;101182.66;5057560;28;45449;-77
2022/02/03 06:42:39;;;;;;;;;8.00;8.00;;;;;9.92;62.44;101192.97;5039246;28;45861;-75
2022/02/03 06:45:30;;;;;;;;;10.00;8.00;;;;;9.91;62.15;101186.06;5056731;28;46298;-77
2022/02/03 06:48:04;;;;;;;;;8.75;7.50;;;;;9.89;62.29;101184.44;5056933;28;46441;-76
2022/02/03 06:50:37;;;;;;;;;8.75;8.00;;;;;9.89;62.38;101190.53;5057273;28;45640;-76
2022/02/03 06:53:10;;;;;;;;;10.25;9.00;;;;;9.89;62.30;101176.59;5056997;28;45602;-77
2022/02/03 07:00:37;;;;;;;;;12.00;9.50;;;;;9.89;62.37;101187.91;5056621;28;45746;-75
2022/02/03 07:03:09;;;;;;;;;10.00;8.00;;;;;9.89;62.22;101194.91;5055462;28;45816;-77
2022/02/03 07:05:34;;;;;;;;;11.25;9.50;;;;;9.82;62.48;101180.53;5056112;28;47540;-77
2022/02/03 07:08:01;;;;;;;;;12.00;11.00;;;;;9.80;62.16;101179.75;5038060;28;47324;-77
2022/02/03 07:10:27;;;;;;;;;9.75;9.25;;;;;9.68;62.11;101170.84;5056530;28;45731;-78
2022/02/03 07:12:52;;;;;;;;;12.25;11.25;;;;;9.82;62.27;101197.06;5056665;28;45796;-76
2022/02/03 07:15:18;;;;;;;;;10.00;8.75;;;;;9.78;62.47;101194.69;5056669;28;45613;-77
2022/02/03 07:17:44;;;;;;;;;12.50;11.00;;;;;9.71;62.27;101191.63;5056132;28;46001;-77
2022/02/03 07:20:12;;;;;;;;;11.00;9.25;;;;;9.68;62.16;101191.78;5056173;28;45775;-77
2022/02/03 07:22:40;;;;;;;;;16.75;15.50;;;;;9.64;62.50;101196.34;5056194;28;45711;-77
2022/02/03 07:25:06;;;;;;;;;10.50;10.00;;;;;9.61;62.48;101209.59;5056974;28;45424;-77
2022/02/03 07:27:32;;;;;;;;;12.00;11.50;;;;;9.57;62.66;101208.09;5056792;28;45976;-77
2022/02/03 07:29:58;;;;;;;;;11.25;9.00;;;;;9.52;62.67;101201.44;5056141;28;45640;-78
2022/02/03 07:32:24;;;;;;;;;12.75;10.50;;;;;9.55;62.66;101223.06;5056872;28;45594;-77
2022/02/03 07:38:11;;;;;;;;;15.75;12.25;;;;;9.45;62.71;101189.63;5058271;28;46236;-76
2022/02/03 07:40:36;;;;;;;;;10.00;8.75;;;;;9.51;62.80;101210.22;5056851;28;45758;-76
2022/02/03 07:43:05;;;;;;;;;11.75;10.00;;;;;9.49;62.72;101202.47;5058270;28;45757;-75
2022/02/03 07:45:32;;;;;;;;;10.00;9.00;;;;;9.45;62.81;101198.31;5056677;28;46800;-76
2022/02/03 07:47:57;;;;;;;;;15.25;14.25;;;;;9.48;62.76;101199.94;5056512;28;45933;-75
2022/02/03 07:53:44;;;;;;;;;12.75;11.25;;;;;9.45;62.63;101206.16;5056235;28;45561;-77
2022/02/03 07:56:10;;;;;;;;;12.00;11.25;;;;;9.41;62.88;101196.81;5056248;28;45687;-78
2022/02/03 07:58:35;;;;;;;;;11.00;10.00;;;;;9.41;62.69;101198.59;5056266;28;46114;-76
2022/02/03 08:01:00;;;;;;;;;14.25;11.75;;;;;9.45;62.64;101198.31;5056290;28;45631;-77
2022/02/03 08:03:26;;;;;;;;;8.50;7.50;;;;;9.45;62.81;101205.31;5056482;28;45619;-76
2022/02/03 08:05:58;;;;;;;;;12.75;11.50;;;;;9.44;62.76;101196.66;5056022;28;46287;-77
2022/02/03 08:08:35;;;;;;;;;8.00;7.00;;;;;9.43;62.88;101202.81;5055675;28;46204;-75
2022/02/03 08:11:05;;;;;;;;;12.00;11.25;;;;;9.43;63.01;101194.13;5055806;28;45640;-74
2022/02/03 08:13:35;;;;;;;;;14.00;10.50;;;;;9.46;63.03;101199.16;5056049;28;45699;-75
2022/02/03 08:16:18;;;;;;;;;11.00;9.50;;;;;9.44;62.95;101193.19;5054095;28;47431;-74
2022/02/03 08:18:48;;;;;;;;;15.00;12.75;;;;;9.42;62.92;101189.81;5055101;28;47151;-73
2022/02/03 08:21:15;;;;;;;;;12.00;11.00;;;;;9.41;63.19;101198.59;5055484;28;45573;-77
2022/02/03 08:23:54;;;;;;;;;11.75;11.50;;;;;9.42;63.26;101205.50;5055515;28;45630;-75
2022/02/03 08:31:23;;;;;;;;;17.50;15.00;;;;;9.41;63.01;101195.97;5055022;28;45755;-73
2022/02/03 08:33:51;;;;;;;;;12.75;12.75;;;;;9.44;62.75;101212.34;5055486;28;45673;-76
2022/02/03 08:36:17;;;;;;;;;12.75;11.00;;;;;9.31;62.71;101189.59;5055292;28;46625;-74
2022/02/03 08:41:08;;;;;;;;;16.50;13.25;;;;;9.38;62.95;101193.53;5053958;28;45647;-76
2022/02/03 08:43:35;;;;;;;;;15.50;14.50;;;;;9.39;62.94;101197.84;5055392;28;45582;-75
2022/02/03 08:46:04;;;;;;;;;12.00;12.00;;;;;9.40;62.82;101189.06;5054553;28;46437;-75
2022/02/03 08:48:30;;;;;;;;;16.00;12.00;;;;;9.41;62.98;101180.28;5054870;28;47209;-74
2022/02/03 08:50:56;;;;;;;;;11.50;10.75;;;;;9.32;63.04;101154.66;5055133;28;45533;-75
2022/02/03 08:53:32;;;;;;;;;15.25;12.25;;;;;9.47;63.08;101182.56;5054883;28;45692;-75
2022/02/03 09:54:33;;;;;;;;;11.25;10.50;;;;;9.47;63.58;101138.94;5060276;28;46113;-76
2022/02/03 10:02:13;;;;;;;;;16.00;15.75;;;;;9.39;63.64;101122.03;5060538;28;45644;-74
2022/02/03 10:07:17;;;;;;;;;15.00;12.25;;;;;9.39;63.62;101114.19;5060696;28;45671;-74
2022/02/03 10:09:44;;;;;;;;;14.75;13.75;;;;;9.36;63.70;101125.63;5060619;28;45613;-75
2022/02/03 10:12:12;;;;;;;;;15.00;12.75;;;;;9.30;63.54;101122.53;5060526;28;46436;-77
2022/02/03 10:14:42;;;;;;;;;16.50;14.75;;;;;9.31;63.81;101132.06;5058729;28;46174;-77
2022/02/03 10:17:12;;;;;;;;;17.00;15.00;;;;;9.25;64.02;101115.81;5060476;28;45743;-76
2022/02/03 10:19:41;;;;;;;;;15.00;13.00;;;;;9.28;63.98;101133.91;5060976;28;45787;-74
2022/02/03 10:22:17;;;;;;;;;15.25;13.25;;;;;9.28;63.86;101141.75;5060984;28;46502;-77
2022/02/03 10:24:46;;;;;;;;;15.75;14.50;;;;;9.27;63.95;101136.63;5060510;28;46183;-75
2022/02/03 10:27:38;;;;;;;;;17.00;14.75;;;;;9.23;63.99;101133.34;5060000;28;45572;-75
2022/02/03 10:30:12;;;;;;;;;12.75;11.50;;;;;9.23;64.07;101133.34;5059838;28;45628;-75
2022/02/03 10:32:45;;;;;;;;;14.25;11.00;;;;;9.22;64.02;101130.81;5060153;28;45627;-75
2022/02/03 10:35:46;;;;;;;;;16.25;14.00;;;;;9.21;64.10;101129.97;5059857;28;47294;-75
2022/02/03 10:52:05;;;;;;;;;19.75;16.00;;;;;9.29;64.11;101153.06;5060066;28;45614;-76
2022/02/03 10:57:19;;;;;;;;;15.75;14.00;;;;;9.24;64.12;101127.19;5059518;28;45684;-74
2022/02/03 11:08:33;;;;;;;;;17.75;14.50;;;;;9.35;64.15;101105.66;5056784;28;45898;-75
2022/02/03 11:11:01;;;;;;;;;15.50;15.00;;;;;9.41;64.25;101100.06;5056766;28;45587;-74
2022/02/03 11:13:30;;;;;;;;;20.25;16.50;;;;;9.49;63.94;101094.41;5056716;28;45689;-75
2022/02/03 11:16:01;;;;;;;;;14.75;12.75;;;;;9.50;64.09;101085.63;5056421;28;45559;-75
2022/02/03 11:18:27;;;;;;;;;17.50;15.00;;;;;9.57;64.10;101086.94;5056172;28;46247;-77
2022/02/03 11:24:31;;;;;;;;;18.00;16.75;;;;;9.52;64.06;101076.75;5054458;28;45667;-75
2022/02/03 11:38:38;;;;;;;;;19.50;17.25;;;;;9.52;64.05;101076.75;5002794;28;45803;-75
2022/02/03 12:00:02;;;;;;;;;15.25;14.50;;;;;9.63;64.01;101058.63;5033621;28;45755;-74
2022/02/03 12:14:13;;;;;;;;;17.00;15.25;;;;;9.61;63.92;101038.72;4993929;28;46007;-78
2022/02/03 12:25:11;;;;;;;;;19.25;16.50;;;;;9.58;63.99;101024.06;4992053;28;46301;-76
2022/02/03 12:27:56;;;;;;;;;20.00;19.25;;;;;9.57;63.93;101032.00;4993687;28;45840;-75
2022/02/03 12:30:34;;;;;;;;;20.25;17.75;;;;;9.56;64.06;101012.84;4977286;28;45710;-74
2022/02/03 12:38:36;;;;;;;;;8.50;6.75;;;;;9.52;64.36;101006.13;4993151;28;45690;-78
2022/02/03 12:41:07;;;;;;;;;21.00;20.25;;;;;9.49;64.28;101011.56;4992704;28;45531;-77
2022/02/03 12:43:55;;;;;;;;;17.50;16.00;;;;;9.42;64.46;101012.84;4992656;28;47604;-75
2022/02/03 12:46:20;;;;;;;;;21.00;18.25;;;;;9.42;64.29;101017.22;4992891;28;47003;-75
2022/02/03 12:48:46;;;;;;;;;20.00;16.00;;;;;9.40;64.42;101009.47;5033669;28;45747;-76
2022/02/03 12:51:11;;;;;;;;;19.75;16.25;;;;;9.37;64.59;101014.88;5055186;28;45498;-75
2022/02/03 12:53:40;;;;;;;;;19.50;15.75;;;;;9.28;64.69;100997.16;5054696;28;46530;-75
2022/02/03 12:56:08;;;;;;;;;20.00;16.00;;;;;9.33;64.75;100991.63;5055110;28;46110;-75
2022/02/03 12:58:38;;;;;;;;;22.75;20.50;;;;;9.35;64.85;101001.06;5055095;28;45558;-76
2022/02/03 13:01:11;;;;;;;;;24.00;20.00;;;;;9.39;64.45;100991.28;5054626;28;45927;-76
2022/02/03 13:03:40;;;;;;;;;19.00;16.00;;;;;9.39;64.81;100986.88;5055081;28;46478;-76
2022/02/03 13:06:11;;;;;;;;;21.00;20.00;;;;;9.42;64.62;100998.91;5055264;28;46170;-75
2022/02/03 13:08:41;;;;;;;;;19.50;17.25;;;;;9.43;64.82;100987.53;5055923;28;45995;-74
2022/02/03 13:11:33;;;;;;;;;23.25;18.50;;;;;9.42;64.89;100991.91;5055755;28;45616;-78
2022/02/03 13:14:21;;;;;;;;;20.00;17.75;;;;;9.48;64.93;100985.47;5056358;28;46793;-76
2022/02/03 13:17:23;;;;;;;;;20.00;19.50;;;;;9.49;64.81;101002.88;5041631;28;48167;-77
2022/02/03 13:22:21;;;;;;;;;20.75;16.50;;;;;9.49;65.15;100989.78;5055653;28;45667;-76
2022/02/03 13:25:48;;;;;;;;;19.50;17.25;;;;;9.46;64.89;100985.56;5055196;28;45521;-75
2022/02/03 13:28:05;;;;;;;;;19.00;17.00;;;;;9.49;65.15;100988.00;5047675;28;45771;-76
2022/02/03 13:33:10;;;;;;;;;23.25;19.75;;;;;9.44;65.18;100978.75;5054973;28;45544;-76
2022/02/03 13:41:36;;;;;;;;;25.75;17.50;;;;;9.38;65.50;100979.13;5055143;28;45635;-77
2022/02/03 13:44:09;;;;;;;;;20.25;17.25;;;;;9.37;65.46;100975.66;5056332;28;45622;-75
2022/02/03 13:46:43;;;;;;;;;18.00;16.75;;;;;9.35;65.51;100961.00;5055600;28;47503;-78
2022/02/03 13:49:25;;;;;;;;;18.00;16.00;;;;;9.27;65.88;100956.25;5054586;28;47254;-77
2022/02/03 14:23:29;;;;;;;;;24.75;19.75;;;;;9.06;67.13;100939.22;5055617;28;46103;-76
2022/02/03 14:28:11;;;;;;;;;22.50;19.75;;;;;9.15;67.14;100944.75;5056043;28;45492;-75
2022/02/03 14:30:43;;;;;;;;;24.00;17.25;;;;;9.18;66.79;100934.09;5054296;28;46489;-77
2022/02/03 14:33:08;;;;;;;;;22.00;20.50;;;;;9.24;66.87;100936.34;5055244;28;46995;-77
2022/02/03 14:35:33;;;;;;;;;22.25;18.75;;;;;9.33;66.74;100939.34;5055548;28;45478;-77
2022/02/03 14:38:10;;;;;;;;;16.50;16.25;;;;;9.32;66.78;100917.59;5055749;28;45720;-75
2022/02/03 14:43:20;;;;;;;;;19.25;17.50;;;;;9.41;66.61;100911.78;5056805;28;45989;-75
2022/02/03 14:45:45;;;;;;;;;21.50;16.00;;;;;9.59;66.61;100918.50;5058116;28;45509;-76
2022/02/03 14:48:14;;;;;;;;;17.75;14.75;;;;;9.65;66.54;100912.91;5057982;28;45498;-76
2022/02/03 14:50:39;;;;;;;;;22.50;18.00;;;;;9.79;66.46;100922.50;5057612;28;45670;-76
2022/02/03 14:53:16;;;;;;;;;21.75;17.75;;;;;9.91;66.42;100924.34;5056217;28;46071;-78
2022/02/03 14:58:28;;;;;;;;;22.25;18.25;;;;;9.99;65.98;100918.59;5057610;28;45673;-75
2022/02/03 15:00:56;;;;;;;;;22.25;15.75;;;;;10.04;65.93;100927.84;5057623;28;46660;-76
2022/02/03 15:03:23;;;;;;;;;22.50;19.75;;;;;10.09;66.14;100917.91;5056847;28;47256;-76
2022/02/03 15:05:49;;;;;;;;;17.75;14.75;;;;;10.17;65.98;100920.09;5057437;28;45741;-75
2022/02/03 15:08:20;;;;;;;;;18.00;14.00;;;;;10.24;65.89;100917.91;5057490;28;45526;-74
2022/02/03 15:11:02;;;;;;;;;19.50;17.25;;;;;10.18;65.75;100905.22;5056973;28;46569;-77
2022/02/03 15:15:59;;;;;;;;;20.00;15.25;;;;;10.40;65.53;100926.47;5056775;28;45822;-76
2022/02/03 15:18:28;;;;;;;;;16.50;13.75;;;;;10.43;65.59;100923.63;5056887;28;45581;-76
2022/02/03 15:20:54;;;;;;;;;14.75;12.75;;;;;10.44;65.42;100917.47;5056525;28;46657;-78
2022/02/03 15:23:19;;;;;;;;;15.75;13.25;;;;;10.43;65.19;100924.47;5056552;28;46947;-76
2022/02/03 15:25:44;;;;;;;;;16.00;12.25;;;;;10.36;65.27;100912.72;5057205;28;45578;-76
2022/02/03 15:28:11;;;;;;;;;20.50;13.00;;;;;10.35;65.11;100910.22;5057102;28;45474;-76
2022/02/03 15:30:37;;;;;;;;;14.50;12.75;;;;;10.43;65.22;100921.84;5038677;28;46601;-74
2022/02/03 15:33:03;;;;;;;;;12.50;12.50;;;;;10.46;65.16;100924.28;5057319;28;46611;-75
2022/02/03 15:35:37;;;;;;;;;16.25;13.75;;;;;10.46;65.12;100913.81;5056432;28;45779;-74
2022/02/03 15:38:06;;;;;;;;;12.00;9.00;;;;;10.48;65.15;100921.53;5057061;28;45640;-77
2022/02/03 15:40:34;;;;;;;;;16.75;13.00;;;;;10.43;65.11;100905.28;5055651;28;47433;-75
2022/02/03 15:45:26;;;;;;;;;15.25;13.00;;;;;10.51;64.99;100921.38;5056585;28;45709;-75
2022/02/03 15:47:58;;;;;;;;;15.25;12.25;;;;;10.48;65.17;100916.31;5057029;28;45449;-74
2022/02/03 16:16:54;;;;;;;;;15.00;13.50;;;;;10.31;65.22;100898.25;4993561;28;45877;-75
2022/02/03 16:19:23;;;;;;;;;14.75;12.00;;;;;10.39;64.96;100907.28;4977778;28;45893;-81
2022/02/03 16:50:48;;;;;;;;;17.75;13.50;;;;;10.61;64.93;100913.72;4993037;28;45886;-77
2022/02/03 16:53:11;;;;;;;;;13.00;12.50;;;;;10.61;64.96;100913.72;5005463;28;45989;-77
2022/02/03 16:55:39;;;;;;;;;12.00;9.50;;;;;10.63;64.98;100923.19;5035219;28;46237;-76
2022/02/03 16:58:08;;;;;;;;;15.25;13.00;;;;;10.63;64.80;100917.94;5034461;28;47208;-74
2022/02/03 17:00:34;;;;;;;;;13.75;12.50;;;;;10.65;65.03;100923.91;5034583;28;45942;-77
2022/02/03 17:03:00;;;;;;;;;14.00;12.50;;;;;10.66;64.77;100924.75;5033953;28;45471;-77
2022/02/03 17:05:26;;;;;;;;;13.25;11.50;;;;;10.71;64.78;100927.91;5034690;28;46424;-77
2022/02/03 17:07:51;;;;;;;;;13.25;10.75;;;;;10.68;64.69;100921.09;5034737;28;45467;-76
2022/02/03 17:10:18;;;;;;;;;14.50;14.25;;;;;10.69;64.99;100914.06;5034302;28;45558;-77
2022/02/03 17:12:44;;;;;;;;;12.50;11.00;;;;;10.70;64.83;100919.19;5033068;28;46088;-76
2022/02/03 17:15:09;;;;;;;;;16.50;13.75;;;;;10.72;64.94;100932.19;5034177;28;45775;-76
2022/02/03 17:17:35;;;;;;;;;13.75;12.25;;;;;10.60;65.02;100902.41;5034087;28;47166;-75
2022/02/03 17:20:00;;;;;;;;;14.00;12.25;;;;;10.70;64.87;100919.19;5034171;28;45688;-77
2022/02/03 17:22:31;;;;;;;;;15.50;13.50;;;;;10.70;64.50;100924.44;5034318;28;45798;-75
2022/02/03 17:27:36;;;;;;;;;12.25;12.25;;;;;10.68;64.93;100921.09;5053937;28;45597;-77
2022/02/03 17:30:12;;;;;;;;;13.00;11.50;;;;;10.73;64.92;100931.25;5054389;28;45535;-76
2022/02/03 18:50:30;;;;;;;;;15.00;14.50;;;;;10.52;65.82;100950.09;4974999;28;45620;-74
2022/02/03 19:12:37;;;;;;;;;19.50;16.50;;;;;10.21;66.52;100920.72;4974799;28;45679;-76
2022/02/03 19:15:27;;;;;;;;;17.25;16.75;;;;;10.48;66.67;100966.06;4974474;28;46117;-74
2022/02/03 20:07:06;;;;;;;;;16.50;15.00;;;;;10.18;68.02;100968.91;5055378;28;45774;-78
2022/02/03 20:12:20;;;;;;;;;16.50;14.00;;;;;10.09;68.41;100961.59;5055120;28;45707;-76
2022/02/03 20:14:45;;;;;;;;;18.25;17.00;;;;;10.09;68.53;100967.66;5055360;28;45840;-78
2022/02/03 20:17:18;;;;;;;;;12.00;12.00;;;;;9.94;68.46;100945.06;5055268;28;45901;-78
2022/02/03 20:19:43;;;;;;;;;19.50;17.50;;;;;9.94;68.82;100952.91;5054285;28;45690;-78
2022/02/03 20:22:09;;;;;;;;;17.25;14.00;;;;;9.91;68.58;100947.91;5055049;28;47057;-77
2022/02/03 20:24:35;;;;;;;;;20.50;16.75;;;;;9.97;68.75;100952.75;5055234;28;45629;-77
2022/02/03 20:27:01;;;;;;;;;16.00;14.50;;;;;10.05;68.72;100965.34;5055469;28;45870;-78
2022/02/03 20:29:30;;;;;;;;;13.25;12.50;;;;;10.06;68.80;100977.50;5069894;28;48598;-76
2022/02/03 20:31:59;;;;;;;;;21.50;18.00;;;;;10.06;68.86;100967.03;5054386;28;45664;-76
2022/02/03 20:34:27;;;;;;;;;17.50;16.75;;;;;9.86;68.84;100939.50;5053339;28;45538;-83
2022/02/03 20:36:54;;;;;;;;;21.00;18.25;;;;;10.09;68.84;100980.75;5057417;28;45940;-81
2022/02/03 20:39:20;;;;;;;;;17.50;16.75;;;;;10.05;69.02;100962.72;5056016;28;46802;-82
2022/02/03 20:41:45;;;;;;;;;15.00;10.50;;;;;10.10;69.02;100971.97;5055483;28;45697;-81
2022/02/03 20:44:10;;;;;;;;;16.50;15.75;;;;;10.09;69.14;100972.06;5056579;28;45851;-83
2022/02/03 20:46:36;;;;;;;;;19.75;18.00;;;;;10.06;69.26;100973.09;5057503;28;45614;-77
2022/02/03 20:49:02;;;;;;;;;16.00;13.25;;;;;10.07;69.09;100968.72;5055123;28;45664;-78
2022/02/03 20:51:31;;;;;;;;;17.25;14.50;;;;;10.07;69.03;100971.31;5055174;28;46888;-76
2022/02/03 20:53:59;;;;;;;;;17.25;15.00;;;;;10.06;69.48;100975.72;5059619;28;45638;-75
2022/02/03 20:56:27;;;;;;;;;21.25;18.50;;;;;10.04;69.25;100977.56;5058386;28;45629;-79
2022/02/03 20:59:03;;;;;;;;;19.75;17.25;;;;;9.91;69.39;100957.53;5058016;28;45743;-78
2022/02/03 21:01:35;;;;;;;;;18.75;16.50;;;;;9.55;69.49;100895.25;5055492;28;47129;-77
2022/02/03 21:04:07;;;;;;;;;19.00;17.00;;;;;10.01;69.77;100976.94;5055150;28;45893;-76
2022/02/03 21:06:37;;;;;;;;;21.00;18.00;;;;;9.97;69.60;100965.00;5054922;28;45610;-75
2022/02/03 21:09:05;;;;;;;;;16.25;14.00;;;;;9.97;69.31;100978.06;5053384;28;46612;-76
2022/02/03 21:11:39;;;;;;;;;18.75;16.00;;;;;9.96;69.39;100979.84;5054751;28;46015;-77
2022/02/03 21:14:04;;;;;;;;;18.50;14.25;;;;;9.96;69.61;100968.53;5053117;28;45851;-78
2022/02/03 21:16:31;;;;;;;;;15.50;13.00;;;;;9.90;69.37;100961.91;5053607;28;45605;-75
2022/02/03 21:18:58;;;;;;;;;18.75;17.00;;;;;9.84;69.43;100946.59;5054763;28;46405;-74
2022/02/03 21:21:23;;;;;;;;;14.00;12.75;;;;;9.87;69.70;100958.66;5054899;28;45673;-74
2022/02/03 21:23:49;;;;;;;;;15.75;13.75;;;;;9.61;69.46;100919.22;5036577;28;45692;-80
2022/02/03 21:29:39;;;;;;;;;22.00;17.00;;;;;9.73;69.51;100956.03;5052849;28;45720;-75
2022/02/03 21:32:12;;;;;;;;;17.00;16.00;;;;;9.55;69.56;100918.81;5053633;28;46295;-79
2022/02/03 21:34:38;;;;;;;;;17.50;15.75;;;;;9.54;69.51;100924.97;5054555;28;45905;-78
2022/02/03 21:37:10;;;;;;;;;13.25;12.25;;;;;9.20;69.45;100879.13;5053316;28;45743;-78
2022/02/03 21:39:35;;;;;;;;;16.00;12.50;;;;;9.48;69.63;100915.72;5054524;28;45595;-74
2022/02/03 21:42:01;;;;;;;;;13.50;12.50;;;;;9.35;69.65;100906.94;5053788;28;46196;-78
2022/02/03 21:44:29;;;;;;;;;17.75;16.50;;;;;9.85;69.77;100973.59;5052612;28;46183;-77
2022/02/03 21:47:00;;;;;;;;;14.50;11.00;;;;;9.71;69.63;100952.69;5036324;28;45955;-78
2022/02/03 21:49:25;;;;;;;;;14.25;12.25;;;;;9.89;69.76;100983.78;5035514;28;47507;-77
2022/02/03 21:51:53;;;;;;;;;17.75;13.25;;;;;9.65;69.83;100935.59;5054181;28;45914;-76
2022/02/03 21:54:19;;;;;;;;;14.75;13.25;;;;;9.88;70.17;100986.50;5054210;28;45713;-76
2022/02/03 21:56:45;;;;;;;;;15.00;13.50;;;;;9.89;69.77;100988.16;5054430;28;45811;-74
2022/02/03 21:59:11;;;;;;;;;16.75;13.50;;;;;9.88;69.81;100978.66;5053762;28;46306;-77
2022/02/03 22:01:40;;;;;;;;;14.25;12.25;;;;;9.88;69.84;100987.31;5053960;28;46255;-76
2022/02/03 22:04:08;;;;;;;;;17.00;13.50;;;;;9.83;70.13;100975.47;5052403;28;45964;-74
2022/02/03 22:06:37;;;;;;;;;14.75;13.25;;;;;9.80;70.17;100981.75;5053973;28;45703;-74
2022/02/03 22:09:03;;;;;;;;;12.75;11.75;;;;;9.83;70.00;100989.38;5053480;28;47037;-74
2022/02/03 22:14:52;;;;;;;;;14.00;12.00;;;;;9.71;70.20;100971.84;5053969;28;45656;-78
2022/02/03 22:17:17;;;;;;;;;14.75;14.75;;;;;9.75;70.11;100975.09;5054031;28;45906;-76
2022/02/03 22:19:51;;;;;;;;;14.50;13.00;;;;;9.82;70.18;100999.97;5053926;28;45638;-75
2022/02/03 22:46:22;;;;;;;;;17.00;13.25;;;;;9.66;70.54;100990.41;5053200;28;45589;-78
2022/02/03 22:48:47;;;;;;;;;16.75;12.75;;;;;9.65;70.51;100996.63;5053611;28;45835;-76
2022/02/03 22:51:13;;;;;;;;;16.75;13.50;;;;;9.62;70.74;100991.53;5052582;28;46513;-75
2022/02/03 22:53:40;;;;;;;;;16.00;13.00;;;;;9.66;70.81;100994.84;5035061;28;46935;-76
2022/02/03 22:56:08;;;;;;;;;16.50;14.75;;;;;9.61;70.60;100987.25;5053025;28;45824;-76
2022/02/03 22:59:02;;;;;;;;;12.25;12.25;;;;;9.65;70.57;100998.38;5053169;28;45581;-78
2022/02/03 23:01:20;;;;;;;;;14.50;12.75;;;;;9.62;71.04;100994.16;5055238;28;46702;-77
2022/02/03 23:03:45;;;;;;;;;17.00;13.50;;;;;9.60;70.87;101006.50;5056298;28;46054;-76
2022/02/03 23:06:12;;;;;;;;;18.50;13.75;;;;;9.61;70.68;101005.56;5038621;28;45666;-79
2022/02/03 23:08:54;;;;;;;;;12.75;12.00;;;;;9.61;70.62;101002.94;5056947;28;45557;-75
2022/02/03 23:21:48;;;;;;;;;15.25;13.75;;;;;9.61;70.83;101007.31;5056396;28;45568;-77
2022/02/03 23:24:14;;;;;;;;;13.75;13.00;;;;;9.47;70.98;100983.78;5056030;28;45703;-78
2022/02/03 23:26:44;;;;;;;;;16.50;14.00;;;;;9.39;70.59;100976.44;5056058;28;45635;-77
2022/02/03 23:29:14;;;;;;;;;12.00;11.50;;;;;9.61;70.97;101009.94;5055474;28;45831;-77
2022/02/03 23:31:49;;;;;;;;;12.25;11.25;;;;;9.61;70.63;101012.56;5056395;28;45662;-78
2022/02/03 23:34:15;;;;;;;;;11.25;9.75;;;;;9.61;70.68;101013.41;5056152;28;46071;-80
2022/02/03 23:36:40;;;;;;;;;16.00;11.00;;;;;9.52;70.87;100995.66;5055992;28;46046;-78
2022/02/03 23:39:26;;;;;;;;;14.00;13.25;;;;;9.58;70.84;101011.00;5056187;28;45690;-77
2022/02/03 23:45:03;;;;;;;;;13.00;12.00;;;;;9.60;71.03;101013.53;5032793;28;45970;-78
2022/02/03 23:50:41;;;;;;;;;12.75;11.50;;;;;9.58;70.81;101002.28;5056196;28;45745;-76
